Observations for CULDROSE NAVY, United Kingdom (EGDR)

EGDR 201950Z 19011KT 9999 FEW008 SCT020 BKN040 10/09 Q1019 WHT TEMPO SCT008 GRN 
EGDR 201925Z 18010KT 9999 SCT008 SCT020 BKN040 10/09 Q1019 GRN TEMPO SCT018 WHT 
EGDR 201850Z 19011G21KT 9999 SCT008 SCT018 BKN040 10/09 Q1019 GRN TEMPO SCT018 WHT  
EGDR 201823Z 19012KT 9999 SCT008 SCT018 BKN050 10/09 Q1019 GRN NOSIG
EGDR 201750Z 19012G22KT 9999 FEW008 SCT020 BKN050 10/09 Q1018 WHT TEMPO SCT012 GRN  
EGDR 201650Z 19013G24KT 9999 FEW012 SCT020 BKN030 10/09 Q1018 WHT TEMPO SCT012 GRN  
EGDR 201626Z 18012G23KT 9999 FEW012 BKN020 11/09 Q1018 WHT NOSIG
EGDR 201550Z 19012G24KT 9999 FEW012 SCT020 BKN100 11/09 Q1018 WHT NOSIG 
EGDR 201520Z 18012G24KT 9999 FEW012 SCT020 BKN100 11/09 Q1018 WHT NOSIG 
EGDR 201450Z 19014G25KT 9999 FEW012 SCT020 BKN100 11/09 Q1018 WHT NOSIG 
EGDR 201429Z 19014G24KT 9999 FEW012 BKN018 BKN028 11/09 Q1017 WHT NOSIG 
EGDR 201350Z 19015G25KT 9999 FEW012 BKN018 BKN028 11/09 Q1018 WHT BECMG SCT012 GRN  
EGDR 201323Z 19015G25KT 9999 FEW012 BKN018 BKN028 11/09 Q1018 WHT BECMG SCT012 GRN  
EGDR 201250Z 19014G24KT 9999 FEW012 SCT018 BKN028 11/08 Q1018 WHT BECMG SCT012 GRN  
EGDR 201222Z 19012KT 9999 FEW012 SCT018 BKN028 11/08 Q1018 WHT BECMG SCT012 GRN 
EGDR 201150Z 19014G24KT 9999 FEW016 BKN026 BKN100 11/08 Q1018 BLU BECMG SCT018 WHT  
EGDR 201150Z 19014G24KT 9999 FEW016 BKN026 BKN100 11/08 Q1018 BLU BECMG SCT018 WHT
EGDR 201133Z 19013G23KT 9999 FEW016 BKN026 BKN100 11/08 Q1018 BLU TEMPO SCT016 WHT  
EGDR 201050Z 19013G24KT 9999 FEW016 SCT065 BKN120 11/08 Q1017 RERA BLU  
EGDR 201023Z 19012G22KT 9999 -RA FEW015 SCT030 BKN090 10/08 Q1017 BLU TEMPO SCT016 WHT  
EGDR 200950Z 20014G24KT 9999 -RA FEW016 BKN030 10/07 Q1017 BLU TEMPO -RA 7000 SCT010 GRN
EGDR 200924Z 20014KT 9999 FEW010 BKN032 11/07 Q1017 BLU TEMPO -RA 7000 SCT010 GRN   
EGDR 200850Z 20013KT 9999 FEW010 SCT031 BKN130 10/07 Q1016 BLU BECMG SCT018 WHT 
EGDR 200821Z 20013KT 9999 FEW024 BKN130 10/07 Q1016 BLU BECMG SCT018 WHT
EGDR 200750Z 20014KT 9999 FEW020 BKN120 10/07 Q1016 BLU BECMG SCT018 WHT
EGDR 200720Z 20014G24KT 9999 FEW018 BKN120 10/07 Q1015 BLU BECMG SCT018 WHT 
EGDR 200650Z 20014KT 9999 FEW018 SCT030 BKN130 10/07 Q1015 BLU BECMG SCT018 WHT 
EGDR 200550Z 20012KT 9999 FEW014 SCT018 BKN160 10/07 Q1015 WHT  
EGDR 200450Z 20013KT 9999 FEW030 BKN160 10/06 Q1015 BLU 
EGDR 200350Z 20014G24KT 9999 FEW020 BKN030 BKN080 10/07 Q1015 BLU   
EGDR 200250Z 20014G24KT 9999 SCT022 BKN080 10/06 Q1016 WHT  
EGDR 200150Z 19012KT 9999 FEW022 SCT030 BKN120 10/06 Q1016 BLU  
EGDR 200050Z 20014KT 9999 FEW022 SCT030 BKN120 10/06 Q1016 BLU  
EGDR 192350Z 20014KT 9999 FEW022 SCT030 BKN120 10/06 Q1016 BLU  
EGDR 192250Z 20013G24KT 9999 FEW022 BKN030 10/06 Q1016 BLU  
EGDR 192150Z 20013KT 9999 FEW022 SCT030 10/06 Q1017 BLU 
EGDR 192050Z 20014G24KT 9999 FEW018 BKN080 09/06 Q1017 BLU TEMPO SCT020 WHT 
EGDR 192024Z 20014G25KT 9999 FEW018 SCT080 09/06 Q1017 BLU TEMPO SCT020 WHT 
EGDR 191950Z 20014G25KT 9999 FEW018 SCT080 09/06 Q1017 BLU TEMPO SCT020 WHT 
EGDR 191921Z 20014G25KT 9999 FEW018 SCT100 09/06 Q1017 BLU TEMPO SCT020 WHT